Time;durP1;ratioP1;P1;durP2;ratioP2;P2;SDS_P1;SDS_P2;PMS_P1;PMS_P2;Temp;Humidity;BMP_temperature;BMP_pressure;BME280_temperature;BME280_humidity;BME280_pressure;Samples;Min_cycle;Max_cycle;Signal;HPM_P1;HPM_P2
2022/08/12 00:44:44;;;;;;;11.35;6.88;;;;;;;;;;5026427;28;20060;-80
2022/08/12 00:47:11;;;;;;;14.00;7.32;;;;;;;;;;5032510;28;20034;-80
2022/08/12 00:49:36;;;;;;;13.57;7.53;;;;;;;;;;5047811;28;20368;-80
2022/08/12 00:52:05;;;;;;;17.45;6.75;;;;;;;;;;5035444;28;20040;-81
2022/08/12 00:54:49;;;;;;;10.25;7.13;;;;;;;;;;5036913;28;20494;-79
2022/08/12 00:57:16;;;;;;;11.80;6.82;;;;;;;;;;5027290;28;20082;-79
2022/08/12 00:59:44;;;;;;;11.32;6.28;;;;;;;;;;5035508;28;20047;-81
2022/08/12 01:02:10;;;;;;;10.23;6.28;;;;;;;;;;5038256;28;20546;-80
2022/08/12 01:12:48;;;;;;;13.13;6.78;;;;;;;;;;5038042;28;20033;-81
2022/08/12 01:15:13;;;;;;;13.55;6.63;;;;;;;;;;5034093;28;20454;-82
2022/08/12 01:17:43;;;;;;;15.43;6.93;;;;;;;;;;5049645;28;20033;-81
2022/08/12 01:20:12;;;;;;;17.52;7.80;;;;;;;;;;5005482;28;20067;-80
2022/08/12 01:22:44;;;;;;;11.85;6.68;;;;;;;;;;5036045;28;20029;-79
2022/08/12 01:25:11;;;;;;;18.98;7.35;;;;;;;;;;5035827;28;20049;-79
2022/08/12 01:27:37;;;;;;;12.68;7.72;;;;;;;;;;5032134;28;20377;-79
2022/08/12 01:30:04;;;;;;;14.90;8.32;;;;;;;;;;5029818;28;20408;-80
2022/08/12 01:32:29;;;;;;;18.15;9.43;;;;;;;;;;5035604;28;20022;-80
2022/08/12 01:35:24;;;;;;;18.92;11.35;;;;;;;;;;5046316;28;20052;-80
2022/08/12 01:38:00;;;;;;;17.15;10.90;;;;;;;;;;5018483;28;20068;-80
2022/08/12 01:40:27;;;;;;;13.57;9.38;;;;;;;;;;5022041;28;20041;-80
2022/08/12 01:42:52;;;;;;;14.85;9.52;;;;;;;;;;5033882;28;20076;-79
2022/08/12 01:45:21;;;;;;;14.82;9.40;;;;;;;;;;5035393;28;20428;-79
2022/08/12 01:48:02;;;;;;;12.32;7.80;;;;;;;;;;5047602;28;20033;-81
2022/08/12 01:50:48;;;;;;;12.95;7.88;;;;;;;;;;5041067;28;20041;-80
2022/08/12 01:53:14;;;;;;;9.52;7.53;;;;;;;;;;5039315;28;20037;-80
2022/08/12 01:55:41;;;;;;;10.55;6.65;;;;;;;;;;5048374;28;20044;-81
2022/08/12 01:58:26;;;;;;;9.85;6.47;;;;;;;;;;5043775;28;20037;-80
2022/08/12 02:00:57;;;;;;;10.48;5.75;;;;;;;;;;5036681;28;20040;-80
2022/08/12 02:11:53;;;;;;;9.25;5.13;;;;;;;;;;5019493;28;20033;-80
2022/08/12 02:14:37;;;;;;;7.32;5.38;;;;;;;;;;5034252;28;20484;-81
2022/08/12 02:17:04;;;;;;;9.32;5.55;;;;;;;;;;5028587;28;20033;-78
2022/08/12 02:19:45;;;;;;;12.80;5.75;;;;;;;;;;5032550;28;20018;-80
2022/08/12 02:22:27;;;;;;;9.65;5.85;;;;;;;;;;5025051;28;20033;-81
2022/08/12 02:25:13;;;;;;;7.47;5.43;;;;;;;;;;5046856;28;20075;-80
2022/08/12 02:27:40;;;;;;;12.07;5.47;;;;;;;;;;5035980;28;20404;-81
2022/08/12 02:30:09;;;;;;;8.93;5.15;;;;;;;;;;5035045;28;20091;-81
2022/08/12 02:32:38;;;;;;;14.75;6.40;;;;;;;;;;5046254;28;20051;-81
2022/08/12 02:35:06;;;;;;;9.35;5.53;;;;;;;;;;5037510;28;20036;-79
2022/08/12 02:37:31;;;;;;;10.07;5.88;;;;;;;;;;5049655;28;20060;-79
2022/08/12 02:39:57;;;;;;;9.70;6.55;;;;;;;;;;5039090;28;20053;-79
2022/08/12 02:42:23;;;;;;;9.23;5.88;;;;;;;;;;5060569;28;20029;-79
2022/08/12 02:44:49;;;;;;;7.85;6.40;;;;;;;;;;5024647;28;20040;-79
2022/08/12 02:47:15;;;;;;;10.68;6.68;;;;;;;;;;5060003;28;20040;-80
2022/08/12 02:49:43;;;;;;;10.18;5.90;;;;;;;;;;5040269;28;20025;-80
2022/08/12 02:52:08;;;;;;;9.70;6.05;;;;;;;;;;5069406;28;20115;-80
2022/08/12 02:54:34;;;;;;;8.00;5.95;;;;;;;;;;5058912;28;20098;-79
2022/08/12 02:56:59;;;;;;;9.25;6.75;;;;;;;;;;5042848;28;20405;-80
2022/08/12 02:59:25;;;;;;;10.70;6.45;;;;;;;;;;5041130;28;20021;-80
2022/08/12 03:01:52;;;;;;;9.77;7.13;;;;;;;;;;5068710;28;20032;-79
2022/08/12 03:04:25;;;;;;;11.02;6.80;;;;;;;;;;5041092;28;20112;-80
2022/08/12 03:07:00;;;;;;;8.00;6.25;;;;;;;;;;5061433;28;20072;-79
2022/08/12 03:09:25;;;;;;;9.23;6.53;;;;;;;;;;5058286;28;20091;-80
2022/08/12 03:11:56;;;;;;;8.40;6.70;;;;;;;;;;5028840;28;20441;-79
2022/08/12 03:14:21;;;;;;;8.18;6.00;;;;;;;;;;5011952;28;20434;-79
2022/08/12 03:16:49;;;;;;;11.07;6.53;;;;;;;;;;5047206;28;20017;-79
2022/08/12 03:19:18;;;;;;;8.55;6.80;;;;;;;;;;5000496;28;20125;-79
2022/08/12 03:21:43;;;;;;;8.05;6.38;;;;;;;;;;5024958;28;20032;-81
2022/08/12 03:24:09;;;;;;;9.38;6.75;;;;;;;;;;5043180;28;20132;-79
2022/08/12 03:26:34;;;;;;;11.85;6.53;;;;;;;;;;5035956;28;20021;-81
2022/08/12 03:29:01;;;;;;;11.68;6.38;;;;;;;;;;5019107;28;20140;-79
2022/08/12 03:31:34;;;;;;;8.75;6.28;;;;;;;;;;5021608;28;20028;-80
2022/08/12 03:34:00;;;;;;;10.73;6.40;;;;;;;;;;5057123;28;20037;-80
2022/08/12 03:36:26;;;;;;;11.73;6.18;;;;;;;;;;5053447;28;20046;-81
2022/08/12 03:39:32;;;;;;;11.02;6.15;;;;;;;;;;5065973;28;20123;-80
2022/08/12 03:41:57;;;;;;;11.65;6.45;;;;;;;;;;5041249;28;20059;-81
2022/08/12 04:00:59;;;;;;;8.30;5.70;;;;;;;;;;5020945;28;20040;-81
2022/08/12 04:06:09;;;;;;;9.10;5.35;;;;;;;;;;5038190;28;20033;-80
2022/08/12 04:08:34;;;;;;;9.63;6.10;;;;;;;;;;5052693;28;20077;-79
2022/08/12 04:13:47;;;;;;;9.70;5.32;;;;;;;;;;5037584;28;20036;-79
2022/08/12 04:16:14;;;;;;;8.55;4.97;;;;;;;;;;5046962;28;20056;-84
2022/08/12 04:18:39;;;;;;;6.28;4.90;;;;;;;;;;5035839;28;20061;-79
2022/08/12 04:21:07;;;;;;;9.65;5.20;;;;;;;;;;5018790;28;20463;-82
2022/08/12 04:23:33;;;;;;;8.00;4.88;;;;;;;;;;5056722;28;20037;-81
2022/08/12 04:25:58;;;;;;;8.30;4.13;;;;;;;;;;5039623;28;20079;-79
2022/08/12 04:28:24;;;;;;;8.95;4.55;;;;;;;;;;5039157;28;20033;-80
2022/08/12 04:30:50;;;;;;;7.93;5.35;;;;;;;;;;5040434;28;20029;-81
2022/08/12 04:33:17;;;;;;;8.10;4.70;;;;;;;;;;5057127;28;20151;-79
2022/08/12 04:35:43;;;;;;;8.52;4.45;;;;;;;;;;5057573;28;20391;-79
2022/08/12 04:38:08;;;;;;;6.70;4.30;;;;;;;;;;5045316;28;20040;-79
2022/08/12 04:40:36;;;;;;;8.98;4.47;;;;;;;;;;5058740;28;20114;-82
2022/08/12 04:43:02;;;;;;;6.22;4.05;;;;;;;;;;5022063;28;20513;-81
2022/08/12 04:45:28;;;;;;;9.55;4.38;;;;;;;;;;5057150;28;20120;-82
2022/08/12 04:47:53;;;;;;;8.25;4.13;;;;;;;;;;5019469;28;20033;-80
2022/08/12 04:50:18;;;;;;;8.98;3.47;;;;;;;;;;5038920;28;20033;-82
2022/08/12 04:52:56;;;;;;;9.38;3.88;;;;;;;;;;5024525;28;20037;-81
2022/08/12 04:55:22;;;;;;;7.00;3.63;;;;;;;;;;5040198;28;20071;-82
2022/08/12 04:57:47;;;;;;;7.47;3.67;;;;;;;;;;5040312;28;20041;-81
2022/08/12 05:00:13;;;;;;;10.73;3.75;;;;;;;;;;5057144;28;20036;-81
2022/08/12 05:02:39;;;;;;;6.95;3.53;;;;;;;;;;5006484;28;20558;-79
2022/08/12 05:05:04;;;;;;;11.73;8.55;;;;;;;;;;5049306;28;20063;-79
2022/08/12 05:07:30;;;;;;;8.30;3.75;;;;;;;;;;5020786;28;20025;-80
2022/08/12 05:09:56;;;;;;;6.25;4.13;;;;;;;;;;5039043;28;20041;-80
2022/08/12 05:12:22;;;;;;;10.75;6.07;;;;;;;;;;5055137;28;20029;-80
2022/08/12 05:14:49;;;;;;;9.25;5.22;;;;;;;;;;5059277;28;20057;-82
2022/08/12 05:17:14;;;;;;;17.83;7.70;;;;;;;;;;5063491;28;20025;-81
2022/08/12 05:19:41;;;;;;;13.23;7.45;;;;;;;;;;5045262;28;20041;-82
2022/08/12 05:22:06;;;;;;;11.75;7.00;;;;;;;;;;5024173;28;20036;-81
2022/08/12 05:24:31;;;;;;;13.18;6.40;;;;;;;;;;5023785;28;20176;-80
2022/08/12 05:26:57;;;;;;;14.55;6.40;;;;;;;;;;5058708;28;20032;-81
2022/08/12 05:29:22;;;;;;;11.43;6.63;;;;;;;;;;5025680;28;20029;-82
2022/08/12 05:31:51;;;;;;;15.73;6.75;;;;;;;;;;5021308;28;20022;-80
2022/08/12 05:34:16;;;;;;;15.95;7.00;;;;;;;;;;5054782;28;20124;-81
2022/08/12 05:36:44;;;;;;;13.13;6.07;;;;;;;;;;5059142;28;20064;-81
2022/08/12 05:39:10;;;;;;;11.52;5.05;;;;;;;;;;5041783;28;20021;-81
2022/08/12 05:41:36;;;;;;;12.05;4.55;;;;;;;;;;5048287;28;20531;-81
2022/08/12 05:44:08;;;;;;;15.13;5.07;;;;;;;;;;5057037;28;20042;-80
2022/08/12 05:46:34;;;;;;;12.98;4.20;;;;;;;;;;5058469;28;20040;-80
2022/08/12 05:49:00;;;;;;;9.63;3.58;;;;;;;;;;5038565;28;20029;-82
2022/08/12 05:51:26;;;;;;;15.55;3.47;;;;;;;;;;5009566;28;20050;-81
2022/08/12 05:53:52;;;;;;;8.82;3.30;;;;;;;;;;5039593;28;20016;-81
2022/08/12 05:56:18;;;;;;;8.88;2.95;;;;;;;;;;5047585;28;20091;-81
2022/08/12 05:58:44;;;;;;;5.20;2.80;;;;;;;;;;5020096;28;20028;-81
2022/08/12 06:01:09;;;;;;;6.07;2.60;;;;;;;;;;5038144;28;20103;-82
2022/08/12 06:03:35;;;;;;;7.88;3.50;;;;;;;;;;5021874;28;20037;-81
2022/08/12 06:06:02;;;;;;;11.00;3.35;;;;;;;;;;5041692;28;20089;-81
2022/08/12 06:08:27;;;;;;;8.45;2.70;;;;;;;;;;5038291;28;20116;-81
2022/08/12 06:10:54;;;;;;;5.15;3.20;;;;;;;;;;5037340;28;20479;-82
2022/08/12 06:13:19;;;;;;;7.38;3.08;;;;;;;;;;5037842;28;20381;-81
2022/08/12 06:15:45;;;;;;;9.63;3.08;;;;;;;;;;5038071;28;20040;-81
2022/08/12 06:18:11;;;;;;;7.25;2.97;;;;;;;;;;5037987;28;20028;-80
2022/08/12 06:20:36;;;;;;;7.18;2.70;;;;;;;;;;5022012;28;20041;-81
2022/08/12 06:23:02;;;;;;;6.57;2.53;;;;;;;;;;5022056;28;20033;-80
2022/08/12 06:25:28;;;;;;;7.95;2.67;;;;;;;;;;5039586;28;20065;-80
2022/08/12 06:27:54;;;;;;;4.38;2.50;;;;;;;;;;5037860;28;20044;-81
2022/08/12 17:29:38;;;;;;;5.43;3.13;;;;;;;;;;5039962;27;20494;-78
2022/08/12 17:32:06;;;;;;;6.47;3.10;;;;;;;;;;5049058;28;20043;-79
2022/08/12 17:37:15;;;;;;;7.55;3.80;;;;;;;;;;5038084;28;20484;-78
2022/08/12 17:39:41;;;;;;;6.18;3.90;;;;;;;;;;5034664;28;20032;-77
2022/08/12 17:42:07;;;;;;;9.23;3.95;;;;;;;;;;5049218;28;20044;-78
2022/08/12 17:44:32;;;;;;;8.93;4.68;;;;;;;;;;5032379;28;20029;-77
2022/08/12 17:46:58;;;;;;;9.00;4.63;;;;;;;;;;5031034;28;20088;-77
2022/08/12 17:49:24;;;;;;;9.55;4.45;;;;;;;;;;5033799;28;20025;-78
2022/08/12 17:51:51;;;;;;;10.23;4.63;;;;;;;;;;5057102;28;20548;-77
2022/08/12 17:54:17;;;;;;;7.22;4.13;;;;;;;;;;5038710;28;20464;-78
2022/08/12 17:56:43;;;;;;;8.25;4.30;;;;;;;;;;5043406;28;20043;-77
2022/08/12 17:59:09;;;;;;;11.40;4.55;;;;;;;;;;5063797;28;20021;-78
2022/08/12 18:01:35;;;;;;;13.50;4.40;;;;;;;;;;5064842;28;20483;-78
2022/08/12 18:04:02;;;;;;;8.38;4.30;;;;;;;;;;5057115;28;20024;-79
2022/08/12 18:06:29;;;;;;;9.95;4.40;;;;;;;;;;5056613;28;20119;-77
2022/08/12 18:08:58;;;;;;;11.82;4.60;;;;;;;;;;5057527;28;20024;-79
2022/08/12 18:14:08;;;;;;;9.38;4.90;;;;;;;;;;5051809;28;20455;-76
2022/08/12 18:16:33;;;;;;;14.40;4.85;;;;;;;;;;5044535;28;20048;-77
2022/08/12 18:19:01;;;;;;;15.10;6.25;;;;;;;;;;5053794;28;20033;-78
2022/08/12 18:21:26;;;;;;;10.63;6.70;;;;;;;;;;5055094;28;20033;-77
2022/08/12 18:23:52;;;;;;;8.30;5.43;;;;;;;;;;5024180;28;20040;-78
2022/08/12 18:26:25;;;;;;;9.98;6.13;;;;;;;;;;5027700;28;20025;-78
2022/08/12 18:28:53;;;;;;;13.68;5.88;;;;;;;;;;5040190;28;20045;-77
2022/08/12 18:31:22;;;;;;;10.75;5.78;;;;;;;;;;5070589;28;20118;-77
2022/08/12 18:33:48;;;;;;;11.00;5.93;;;;;;;;;;5028021;28;20036;-78
2022/08/12 18:36:14;;;;;;;14.55;5.82;;;;;;;;;;5022824;28;20097;-77
2022/08/12 18:38:39;;;;;;;15.85;5.68;;;;;;;;;;5054368;28;20037;-77
2022/08/12 18:43:50;;;;;;;20.30;9.93;;;;;;;;;;5047896;28;20422;-77
2022/08/12 18:46:15;;;;;;;16.00;10.10;;;;;;;;;;5048071;28;20043;-77
2022/08/12 18:48:41;;;;;;;17.70;10.60;;;;;;;;;;5046415;28;20033;-77
2022/08/12 18:51:10;;;;;;;17.05;9.27;;;;;;;;;;5031930;28;20487;-78
2022/08/12 18:53:41;;;;;;;22.27;10.93;;;;;;;;;;5048357;28;20035;-78
2022/08/12 18:56:07;;;;;;;19.88;10.25;;;;;;;;;;5051569;28;20571;-77
2022/08/12 18:58:37;;;;;;;18.73;10.27;;;;;;;;;;5047563;28;20025;-77
2022/08/12 19:01:04;;;;;;;22.00;12.40;;;;;;;;;;5046029;28;20029;-77
2022/08/12 19:03:29;;;;;;;18.25;12.13;;;;;;;;;;5031589;28;20036;-77
2022/08/12 19:05:55;;;;;;;17.35;11.48;;;;;;;;;;5031598;28;20033;-76
2022/08/12 19:08:25;;;;;;;21.30;14.10;;;;;;;;;;5031051;28;20028;-77
2022/08/12 19:10:50;;;;;;;23.05;13.80;;;;;;;;;;5044887;28;20095;-78
2022/08/12 19:16:00;;;;;;;21.33;14.07;;;;;;;;;;5032449;28;20025;-78
2022/08/12 19:18:27;;;;;;;22.17;14.00;;;;;;;;;;5011789;28;20025;-77
2022/08/12 19:20:52;;;;;;;23.95;14.98;;;;;;;;;;5031993;28;20376;-76
2022/08/12 19:23:18;;;;;;;25.35;15.23;;;;;;;;;;5032131;28;20048;-83
2022/08/12 19:25:44;;;;;;;22.98;14.10;;;;;;;;;;5037129;28;20037;-84
2022/08/12 19:28:09;;;;;;;24.85;15.75;;;;;;;;;;5039413;28;20056;-85
2022/08/12 19:33:21;;;;;;;23.13;15.27;;;;;;;;;;5043473;28;20040;-83
2022/08/12 19:35:46;;;;;;;24.73;15.80;;;;;;;;;;5035659;28;20528;-84
2022/08/12 19:38:13;;;;;;;26.92;15.32;;;;;;;;;;5047573;28;20028;-83
2022/08/12 19:40:45;;;;;;;24.17;16.05;;;;;;;;;;5043065;28;20026;-83
2022/08/12 19:43:12;;;;;;;30.35;16.40;;;;;;;;;;5030447;28;20041;-83
2022/08/12 19:45:39;;;;;;;23.80;15.73;;;;;;;;;;5047689;28;20547;-83
2022/08/12 19:48:09;;;;;;;24.48;15.63;;;;;;;;;;5037323;28;20140;-84
2022/08/12 19:50:35;;;;;;;27.58;16.45;;;;;;;;;;5044530;28;20033;-82
2022/08/12 19:53:01;;;;;;;25.77;16.33;;;;;;;;;;5044649;28;20041;-81
2022/08/12 19:55:27;;;;;;;26.38;16.38;;;;;;;;;;5046925;28;20095;-83
2022/08/12 19:57:52;;;;;;;30.13;16.48;;;;;;;;;;5035894;28;20055;-81
2022/08/12 20:00:19;;;;;;;29.35;16.13;;;;;;;;;;5012162;28;20116;-82
2022/08/12 20:02:44;;;;;;;27.02;16.00;;;;;;;;;;5043153;28;20434;-81
2022/08/12 20:05:10;;;;;;;24.73;16.05;;;;;;;;;;5013319;28;20021;-82
2022/08/12 20:07:36;;;;;;;31.48;16.98;;;;;;;;;;5015696;28;20126;-83
2022/08/12 20:10:03;;;;;;;26.83;17.10;;;;;;;;;;5047102;28;20124;-82
2022/08/12 20:12:31;;;;;;;31.40;18.70;;;;;;;;;;5029910;28;20514;-85
2022/08/12 20:14:57;;;;;;;33.28;17.98;;;;;;;;;;5038019;28;20499;-85
2022/08/12 20:17:23;;;;;;;36.63;18.23;;;;;;;;;;5033184;28;20082;-84
2022/08/12 20:19:49;;;;;;;38.20;16.77;;;;;;;;;;5051772;28;20472;-83
2022/08/12 20:22:16;;;;;;;38.20;17.80;;;;;;;;;;5033150;28;20091;-82
2022/08/12 20:24:43;;;;;;;35.88;17.85;;;;;;;;;;5023575;28;20531;-84
2022/08/12 20:27:10;;;;;;;36.53;18.45;;;;;;;;;;5035165;28;20029;-84
2022/08/12 20:29:36;;;;;;;36.88;18.83;;;;;;;;;;5046352;28;20047;-83
2022/08/12 20:32:25;;;;;;;39.83;18.10;;;;;;;;;;5015074;28;20095;-85
2022/08/12 20:34:51;;;;;;;30.63;17.55;;;;;;;;;;5050814;28;20053;-85
2022/08/12 20:37:25;;;;;;;34.38;16.80;;;;;;;;;;5038399;28;20004;-83
2022/08/12 20:39:51;;;;;;;29.65;18.05;;;;;;;;;;5022855;28;20044;-81
2022/08/12 20:42:17;;;;;;;32.13;16.75;;;;;;;;;;5044920;28;20025;-82
2022/08/12 20:44:42;;;;;;;26.05;16.27;;;;;;;;;;5017757;28;20021;-84
2022/08/12 20:47:10;;;;;;;28.23;15.95;;;;;;;;;;5015516;28;20013;-82
2022/08/12 20:49:40;;;;;;;25.33;15.82;;;;;;;;;;5019706;28;20049;-82
2022/08/12 20:52:06;;;;;;;25.25;15.48;;;;;;;;;;5025839;28;20105;-83
2022/08/12 20:54:32;;;;;;;24.35;16.27;;;;;;;;;;5039784;28;20041;-82
2022/08/12 20:56:58;;;;;;;24.85;15.27;;;;;;;;;;5028866;28;20116;-83
2022/08/12 20:59:27;;;;;;;22.23;14.80;;;;;;;;;;5030520;28;20039;-83
2022/08/12 21:01:53;;;;;;;26.60;14.80;;;;;;;;;;5044780;28;20051;-84
2022/08/12 21:07:05;;;;;;;26.63;15.93;;;;;;;;;;5031283;28;20500;-81
2022/08/12 21:09:32;;;;;;;24.33;14.98;;;;;;;;;;5048781;28;20028;-82
2022/08/12 21:11:58;;;;;;;25.67;15.07;;;;;;;;;;5044304;28;20029;-83
2022/08/12 21:14:23;;;;;;;26.33;14.73;;;;;;;;;;5034382;28;20108;-83
2022/08/12 21:16:50;;;;;;;26.13;15.23;;;;;;;;;;5027339;28;20037;-83
2022/08/12 21:19:16;;;;;;;25.15;14.68;;;;;;;;;;5027290;28;20052;-82
2022/08/12 21:21:41;;;;;;;25.58;15.00;;;;;;;;;;5031824;28;20025;-82
2022/08/12 21:24:07;;;;;;;27.35;14.95;;;;;;;;;;5033643;28;20017;-83
2022/08/12 21:26:41;;;;;;;25.60;14.02;;;;;;;;;;5048618;28;20033;-82
2022/08/12 21:29:11;;;;;;;20.83;13.75;;;;;;;;;;5045132;28;20061;-83
2022/08/12 21:31:36;;;;;;;23.90;12.50;;;;;;;;;;5005908;28;20064;-81
2022/08/12 21:34:03;;;;;;;19.63;12.13;;;;;;;;;;5023296;28;20124;-82
2022/08/12 21:36:33;;;;;;;18.42;11.65;;;;;;;;;;5023535;28;20116;-86
2022/08/12 21:39:00;;;;;;;18.65;12.50;;;;;;;;;;5024136;28;20034;-83
2022/08/12 21:41:29;;;;;;;21.40;11.60;;;;;;;;;;5022665;28;20491;-84
2022/08/12 21:43:55;;;;;;;17.75;11.07;;;;;;;;;;5027860;28;20041;-83
2022/08/12 21:46:20;;;;;;;19.48;11.75;;;;;;;;;;5022828;28;20478;-83
2022/08/12 21:48:46;;;;;;;16.60;10.65;;;;;;;;;;5020925;28;20049;-82
2022/08/12 21:51:12;;;;;;;17.50;10.32;;;;;;;;;;5021460;28;20025;-82
2022/08/12 21:53:38;;;;;;;18.83;11.77;;;;;;;;;;5021118;28;20120;-82
2022/08/12 21:56:04;;;;;;;15.85;10.00;;;;;;;;;;5021109;28;20021;-82
2022/08/12 21:58:30;;;;;;;20.63;9.90;;;;;;;;;;5040039;28;20492;-82
2022/08/12 22:00:56;;;;;;;14.50;9.95;;;;;;;;;;5020553;28;20033;-82
2022/08/12 22:06:20;;;;;;;13.90;9.20;;;;;;;;;;5029842;28;20056;-81
2022/08/12 22:08:46;;;;;;;15.82;9.55;;;;;;;;;;5023814;28;20033;-84
2022/08/12 22:11:11;;;;;;;20.92;10.18;;;;;;;;;;5037943;28;20040;-80
2022/08/12 22:13:37;;;;;;;14.82;8.93;;;;;;;;;;5021426;28;20095;-83
2022/08/12 22:16:03;;;;;;;11.80;8.98;;;;;;;;;;5021218;28;20037;-82
2022/08/12 22:18:28;;;;;;;12.48;9.52;;;;;;;;;;5041439;28;20124;-81
2022/08/12 22:20:54;;;;;;;14.52;9.57;;;;;;;;;;5021101;28;20068;-83
2022/08/12 22:23:19;;;;;;;14.40;9.45;;;;;;;;;;5041482;28;20034;-82
2022/08/12 22:25:45;;;;;;;14.05;9.25;;;;;;;;;;5041841;28;20025;-82
2022/08/12 22:31:10;;;;;;;12.60;8.43;;;;;;;;;;5040170;28;20036;-81
2022/08/12 22:33:36;;;;;;;15.68;8.50;;;;;;;;;;4999689;28;20042;-82
2022/08/12 22:36:02;;;;;;;13.95;8.50;;;;;;;;;;5039668;28;20033;-83
2022/08/12 22:38:28;;;;;;;14.52;9.02;;;;;;;;;;5023679;28;20041;-82
2022/08/12 22:40:57;;;;;;;12.77;8.57;;;;;;;;;;5021333;28;20409;-80
2022/08/12 22:48:49;;;;;;;13.88;8.23;;;;;;;;;;5049550;28;20418;-81
2022/08/12 22:51:21;;;;;;;12.75;8.30;;;;;;;;;;5045148;28;20025;-82
2022/08/12 22:53:51;;;;;;;14.70;8.35;;;;;;;;;;5036710;28;20049;-83
2022/08/12 22:56:18;;;;;;;13.98;8.65;;;;;;;;;;5047516;28;20149;-81
2022/08/12 22:58:45;;;;;;;9.40;7.32;;;;;;;;;;5037836;28;20038;-82
2022/08/12 23:01:10;;;;;;;11.95;8.98;;;;;;;;;;5045096;28;20056;-81
2022/08/12 23:03:36;;;;;;;16.88;8.25;;;;;;;;;;5040411;28;20041;-82
2022/08/12 23:06:02;;;;;;;10.50;8.30;;;;;;;;;;5056915;28;20533;-83
2022/08/12 23:08:30;;;;;;;13.35;8.35;;;;;;;;;;5053723;28;20029;-82
2022/08/12 23:10:56;;;;;;;12.10;8.48;;;;;;;;;;5047941;28;20075;-82
2022/08/12 23:16:05;;;;;;;14.38;8.40;;;;;;;;;;5047783;28;20116;-83
2022/08/12 23:18:32;;;;;;;16.77;8.43;;;;;;;;;;5056885;28;20048;-83
2022/08/12 23:20:57;;;;;;;11.77;7.95;;;;;;;;;;5047335;28;20396;-83
2022/08/12 23:23:23;;;;;;;10.40;7.85;;;;;;;;;;5043378;28;20033;-82
2022/08/12 23:25:48;;;;;;;13.57;8.20;;;;;;;;;;5056011;28;20047;-81
2022/08/12 23:30:59;;;;;;;11.98;8.32;;;;;;;;;;5051262;28;20045;-83
2022/08/12 23:33:25;;;;;;;12.55;8.02;;;;;;;;;;5039089;28;20058;-82
2022/08/12 23:35:51;;;;;;;11.60;8.52;;;;;;;;;;5056998;28;20048;-83
2022/08/12 23:38:16;;;;;;;11.13;7.68;;;;;;;;;;5050960;28;20025;-82
2022/08/12 23:40:41;;;;;;;14.45;8.20;;;;;;;;;;5021592;28;20033;-82
2022/08/12 23:43:07;;;;;;;10.75;7.45;;;;;;;;;;5042436;28;20454;-83
2022/08/12 23:45:33;;;;;;;10.27;7.82;;;;;;;;;;5043675;28;20029;-82
2022/08/12 23:47:59;;;;;;;10.65;7.68;;;;;;;;;;5021599;28;20479;-83
2022/08/12 23:50:25;;;;;;;12.65;7.60;;;;;;;;;;5040279;28;20092;-82
2022/08/12 23:52:51;;;;;;;10.70;7.53;;;;;;;;;;5040454;28;20368;-83
2022/08/12 23:55:19;;;;;;;11.05;7.78;;;;;;;;;;5038106;28;20391;-82
2022/08/12 23:57:46;;;;;;;9.93;7.45;;;;;;;;;;5019244;28;20034;-81
